Terminal Aerodrome Forecast
Issued by NWS Jackson, MS

Home | Current Version | Previous Version | Text Only | Print | Product List | Glossary On
Versions: 1 2 3 4 5 6 7 8 9 10 11 12 13
000
FTUS44 KMEG 051120
TAFTUP
TAF
KTUP 051120Z 0512/0612 00000KT P6SM SCT250
     FM051500 10006KT P6SM SCT045
     FM060000 00000KT P6SM SCT250
      TEMPO 0609/0612 4SM BR=

USA.gov is the U.S. government's official web portal to all federal, state and local government web resources and services.